sensor_id;sensor_type;location;lat;lon;timestamp;pressure;altitude;pressure_sealevel;temperature;humidity
61035;BME280;46916;40.564;-7.958;2022-12-18T00:01:29;97846.50;;;10.86;80.36
61035;BME280;46916;40.564;-7.958;2022-12-18T00:03:35;97850.44;;;10.81;80.43
61035;BME280;46916;40.564;-7.958;2022-12-18T00:05:36;97848.16;;;10.76;80.44
61035;BME280;46916;40.564;-7.958;2022-12-18T00:07:37;97844.94;;;10.73;80.52
61035;BME280;46916;40.564;-7.958;2022-12-18T00:09:38;97844.34;;;10.69;81.34
61035;BME280;46916;40.564;-7.958;2022-12-18T00:11:38;97835.94;;;10.65;81.43
61035;BME280;46916;40.564;-7.958;2022-12-18T00:13:39;97834.16;;;10.66;81.21
61035;BME280;46916;40.564;-7.958;2022-12-18T00:15:40;97834.25;;;10.64;81.55
61035;BME280;46916;40.564;-7.958;2022-12-18T00:17:41;97832.34;;;10.66;81.47
61035;BME280;46916;40.564;-7.958;2022-12-18T00:19:41;97838.41;;;10.67;81.33
61035;BME280;46916;40.564;-7.958;2022-12-18T00:21:43;97832.13;;;10.70;81.49
61035;BME280;46916;40.564;-7.958;2022-12-18T00:23:44;97828.53;;;10.71;81.38
61035;BME280;46916;40.564;-7.958;2022-12-18T00:25:45;97820.69;;;10.71;81.45
61035;BME280;46916;40.564;-7.958;2022-12-18T00:27:46;97812.81;;;10.71;81.29
61035;BME280;46916;40.564;-7.958;2022-12-18T00:29:48;97814.47;;;10.72;81.55
61035;BME280;46916;40.564;-7.958;2022-12-18T00:31:49;97814.47;;;10.72;81.38
61035;BME280;46916;40.564;-7.958;2022-12-18T00:33:51;97814.47;;;10.72;81.70
61035;BME280;46916;40.564;-7.958;2022-12-18T00:35:52;97813.50;;;10.73;81.41
61035;BME280;46916;40.564;-7.958;2022-12-18T00:37:53;97818.66;;;10.74;81.67
61035;BME280;46916;40.564;-7.958;2022-12-18T00:39:54;97813.28;;;10.76;81.64
61035;BME280;46916;40.564;-7.958;2022-12-18T00:41:55;97809.69;;;10.77;81.30
61035;BME280;46916;40.564;-7.958;2022-12-18T00:44:16;97805.41;;;10.76;81.39
61035;BME280;46916;40.564;-7.958;2022-12-18T00:46:17;97811.38;;;10.78;81.40
61035;BME280;46916;40.564;-7.958;2022-12-18T00:48:18;97816.50;;;10.79;81.13
61035;BME280;46916;40.564;-7.958;2022-12-18T00:50:19;97819.94;;;10.80;80.95
61035;BME280;46916;40.564;-7.958;2022-12-18T00:52:19;97819.13;;;10.79;81.31
61035;BME280;46916;40.564;-7.958;2022-12-18T00:54:20;97822.69;;;10.78;81.26
61035;BME280;46916;40.564;-7.958;2022-12-18T00:56:21;97818.53;;;10.76;81.25
61035;BME280;46916;40.564;-7.958;2022-12-18T00:58:22;97815.06;;;10.75;81.48
61035;BME280;46916;40.564;-7.958;2022-12-18T01:00:23;97816.88;;;10.75;81.38
61035;BME280;46916;40.564;-7.958;2022-12-18T01:02:23;97812.44;;;10.75;81.59
61035;BME280;46916;40.564;-7.958;2022-12-18T01:04:24;97815.91;;;10.76;81.24
61035;BME280;46916;40.564;-7.958;2022-12-18T01:06:25;97818.53;;;10.76;81.37
61035;BME280;46916;40.564;-7.958;2022-12-18T01:08:25;97819.34;;;10.76;81.42
61035;BME280;46916;40.564;-7.958;2022-12-18T01:10:26;97824.72;;;10.75;81.23
61035;BME280;46916;40.564;-7.958;2022-12-18T01:12:32;97816.97;;;10.73;80.87
61035;BME280;46916;40.564;-7.958;2022-12-18T01:14:32;97818.88;;;10.71;81.28
61035;BME280;46916;40.564;-7.958;2022-12-18T01:16:33;97815.44;;;10.71;81.31
61035;BME280;46916;40.564;-7.958;2022-12-18T01:18:34;97821.63;;;10.70;81.18
61035;BME280;46916;40.564;-7.958;2022-12-18T01:20:35;97829.38;;;10.71;81.56
61035;BME280;46916;40.564;-7.958;2022-12-18T01:22:36;97828.78;;;10.68;81.04
61035;BME280;46916;40.564;-7.958;2022-12-18T01:24:36;97821.88;;;10.66;81.60
61035;BME280;46916;40.564;-7.958;2022-12-18T01:26:37;97817.47;;;10.67;81.24
61035;BME280;46916;40.564;-7.958;2022-12-18T01:28:38;97821.03;;;10.66;81.75
61035;BME280;46916;40.564;-7.958;2022-12-18T01:30:39;97815.81;;;10.66;81.64
61035;BME280;46916;40.564;-7.958;2022-12-18T01:32:40;97810.44;;;10.68;81.66
61035;BME280;46916;40.564;-7.958;2022-12-18T01:34:41;97813.78;;;10.70;81.58
61035;BME280;46916;40.564;-7.958;2022-12-18T01:36:42;97813.78;;;10.70;81.57
61035;BME280;46916;40.564;-7.958;2022-12-18T01:38:42;97812.00;;;10.70;81.23
61035;BME280;46916;40.564;-7.958;2022-12-18T01:40:43;97809.59;;;10.67;81.03
61035;BME280;46916;40.564;-7.958;2022-12-18T01:42:44;97810.66;;;10.64;81.24
61035;BME280;46916;40.564;-7.958;2022-12-18T01:45:38;97812.59;;;10.62;80.94
61035;BME280;46916;40.564;-7.958;2022-12-18T01:47:25;97816.28;;;10.60;80.76
61035;BME280;46916;40.564;-7.958;2022-12-18T01:49:26;97825.91;;;10.59;80.87
61035;BME280;46916;40.564;-7.958;2022-12-18T01:51:28;97832.94;;;10.59;80.65
61035;BME280;46916;40.564;-7.958;2022-12-18T01:53:30;97838.19;;;10.59;80.74
61035;BME280;46916;40.564;-7.958;2022-12-18T01:55:36;97831.16;;;10.59;80.84
61035;BME280;46916;40.564;-7.958;2022-12-18T01:57:39;97830.34;;;10.59;80.84
61035;BME280;46916;40.564;-7.958;2022-12-18T01:59:42;97839.00;;;10.59;80.95
61035;BME280;46916;40.564;-7.958;2022-12-18T02:01:45;97831.66;;;10.53;80.88
61035;BME280;46916;40.564;-7.958;2022-12-18T02:03:46;97839.00;;;10.48;80.76
61035;BME280;46916;40.564;-7.958;2022-12-18T02:12:48;97832.00;;;10.37;80.94
61035;BME280;46916;40.564;-7.958;2022-12-18T02:15:00;97831.06;;;10.38;81.24
61035;BME280;46916;40.564;-7.958;2022-12-18T02:17:16;97821.28;;;10.40;81.49
61035;BME280;46916;40.564;-7.958;2022-12-18T02:22:06;97822.59;;;10.46;81.88
61035;BME280;46916;40.564;-7.958;2022-12-18T02:26:22;97822.47;;;10.48;82.11
61035;BME280;46916;40.564;-7.958;2022-12-18T02:28:31;97829.13;;;10.52;81.94
61035;BME280;46916;40.564;-7.958;2022-12-18T02:30:37;97824.50;;;10.55;82.53
61035;BME280;46916;40.564;-7.958;2022-12-18T02:32:42;97830.56;;;10.56;81.99
61035;BME280;46916;40.564;-7.958;2022-12-18T02:34:45;97824.50;;;10.55;82.38
61035;BME280;46916;40.564;-7.958;2022-12-18T02:36:49;97829.03;;;10.53;81.70
61035;BME280;46916;40.564;-7.958;2022-12-18T02:38:53;97836.38;;;10.48;82.02
61035;BME280;46916;40.564;-7.958;2022-12-18T02:40:56;97829.50;;;10.47;82.45
61035;BME280;46916;40.564;-7.958;2022-12-18T02:43:12;97838.09;;;10.49;82.21
61035;BME280;46916;40.564;-7.958;2022-12-18T02:45:13;97841.41;;;10.51;82.46
61035;BME280;46916;40.564;-7.958;2022-12-18T02:47:16;97841.03;;;10.56;82.25
61035;BME280;46916;40.564;-7.958;2022-12-18T02:54:14;97837.13;;;10.61;82.15
61035;BME280;46916;40.564;-7.958;2022-12-18T02:56:38;97835.34;;;10.62;82.28
61035;BME280;46916;40.564;-7.958;2022-12-18T02:58:56;97832.59;;;10.63;81.90
61035;BME280;46916;40.564;-7.958;2022-12-18T03:01:15;97832.59;;;10.63;82.36
61035;BME280;46916;40.564;-7.958;2022-12-18T03:05:30;97836.16;;;10.62;82.52
61035;BME280;46916;40.564;-7.958;2022-12-18T03:07:56;97840.56;;;10.62;82.37
61035;BME280;46916;40.564;-7.958;2022-12-18T03:10:01;97846.66;;;10.62;82.70
61035;BME280;46916;40.564;-7.958;2022-12-18T03:12:15;97841.28;;;10.64;82.42
61035;BME280;46916;40.564;-7.958;2022-12-18T03:14:26;97841.16;;;10.65;82.44
61035;BME280;46916;40.564;-7.958;2022-12-18T03:16:32;97839.38;;;10.66;82.31
61035;BME280;46916;40.564;-7.958;2022-12-18T03:18:39;97843.44;;;10.70;82.28
61035;BME280;46916;40.564;-7.958;2022-12-18T03:20:44;97839.00;;;10.71;82.46
61035;BME280;46916;40.564;-7.958;2022-12-18T03:22:54;97839.00;;;10.71;82.15
61035;BME280;46916;40.564;-7.958;2022-12-18T03:25:02;97840.91;;;10.69;82.29
61035;BME280;46916;40.564;-7.958;2022-12-18T03:27:07;97843.66;;;10.67;82.33
61035;BME280;46916;40.564;-7.958;2022-12-18T03:29:19;97841.16;;;10.65;82.35
61035;BME280;46916;40.564;-7.958;2022-12-18T03:31:23;97849.13;;;10.64;82.38
61035;BME280;46916;40.564;-7.958;2022-12-18T03:33:42;97845.81;;;10.62;82.17
61035;BME280;46916;40.564;-7.958;2022-12-18T03:35:46;97841.41;;;10.62;82.55
61035;BME280;46916;40.564;-7.958;2022-12-18T03:37:47;97841.41;;;10.62;82.15
61035;BME280;46916;40.564;-7.958;2022-12-18T03:39:48;97845.09;;;10.60;82.75
61035;BME280;46916;40.564;-7.958;2022-12-18T03:42:07;97842.59;;;10.58;82.62
61035;BME280;46916;40.564;-7.958;2022-12-18T03:45:32;97831.28;;;10.58;82.68
61035;BME280;46916;40.564;-7.958;2022-12-18T03:47:22;97830.69;;;10.54;82.64
61035;BME280;46916;40.564;-7.958;2022-12-18T03:49:38;97830.69;;;10.54;82.83
61035;BME280;46916;40.564;-7.958;2022-12-18T03:54:01;97832.59;;;10.52;82.82
61035;BME280;46916;40.564;-7.958;2022-12-18T03:56:07;97829.03;;;10.53;83.33
61035;BME280;46916;40.564;-7.958;2022-12-18T03:58:16;97830.69;;;10.54;83.19
61035;BME280;46916;40.564;-7.958;2022-12-18T04:00:29;97825.47;;;10.54;83.29
61035;BME280;46916;40.564;-7.958;2022-12-18T04:02:46;97826.28;;;10.55;83.18
61035;BME280;46916;40.564;-7.958;2022-12-18T04:04:58;97832.34;;;10.55;83.02
61035;BME280;46916;40.564;-7.958;2022-12-18T04:07:02;97842.13;;;10.53;82.73
61035;BME280;46916;40.564;-7.958;2022-12-18T04:09:04;97843.19;;;10.51;82.48
61035;BME280;46916;40.564;-7.958;2022-12-18T04:11:09;97844.03;;;10.51;82.69
61035;BME280;46916;40.564;-7.958;2022-12-18T04:13:09;97845.94;;;10.49;82.59
61035;BME280;46916;40.564;-7.958;2022-12-18T04:15:11;97837.34;;;10.47;82.51
61035;BME280;46916;40.564;-7.958;2022-12-18T04:17:12;97847.81;;;10.47;82.89
61035;BME280;46916;40.564;-7.958;2022-12-18T04:19:13;97843.56;;;10.46;82.91
61035;BME280;46916;40.564;-7.958;2022-12-18T04:21:16;97830.47;;;10.46;82.57
61035;BME280;46916;40.564;-7.958;2022-12-18T04:23:18;97837.34;;;10.47;83.13
61035;BME280;46916;40.564;-7.958;2022-12-18T04:25:19;97839.16;;;10.47;83.14
61035;BME280;46916;40.564;-7.958;2022-12-18T04:27:39;97839.84;;;10.49;82.72
61035;BME280;46916;40.564;-7.958;2022-12-18T04:29:42;97842.47;;;10.49;82.71
61035;BME280;46916;40.564;-7.958;2022-12-18T04:31:43;97835.69;;;10.46;82.41
61035;BME280;46916;40.564;-7.958;2022-12-18T04:33:43;97839.16;;;10.47;82.93
61035;BME280;46916;40.564;-7.958;2022-12-18T04:35:44;97837.59;;;10.44;82.93
61035;BME280;46916;40.564;-7.958;2022-12-18T04:37:45;97830.91;;;10.40;82.77
61035;BME280;46916;40.564;-7.958;2022-12-18T04:39:46;97824.03;;;10.39;82.79
61035;BME280;46916;40.564;-7.958;2022-12-18T04:41:54;97822.47;;;10.36;82.78
61035;BME280;46916;40.564;-7.958;2022-12-18T04:43:55;97824.38;;;10.34;82.69
61035;BME280;46916;40.564;-7.958;2022-12-18T04:46:07;97825.34;;;10.33;83.05
61035;BME280;46916;40.564;-7.958;2022-12-18T04:48:08;97832.47;;;10.31;82.85
61035;BME280;46916;40.564;-7.958;2022-12-18T04:50:09;97829.97;;;10.30;82.56
61035;BME280;46916;40.564;-7.958;2022-12-18T04:52:09;97834.63;;;10.26;82.44
61035;BME280;46916;40.564;-7.958;2022-12-18T04:54:10;97825.16;;;10.24;82.18
61035;BME280;46916;40.564;-7.958;2022-12-18T04:56:15;97826.25;;;10.21;82.33
61035;BME280;46916;40.564;-7.958;2022-12-18T04:58:15;97829.94;;;10.18;82.15
61035;BME280;46916;40.564;-7.958;2022-12-18T05:00:16;97827.44;;;10.17;82.41
61035;BME280;46916;40.564;-7.958;2022-12-18T05:02:17;97836.13;;;10.17;82.52
61035;BME280;46916;40.564;-7.958;2022-12-18T05:04:18;97829.09;;;10.18;82.46
61035;BME280;46916;40.564;-7.958;2022-12-18T05:06:18;97823.72;;;10.20;82.28
61035;BME280;46916;40.564;-7.958;2022-12-18T05:08:19;97827.09;;;10.22;82.35
61035;BME280;46916;40.564;-7.958;2022-12-18T05:10:20;97821.66;;;10.25;82.06
61035;BME280;46916;40.564;-7.958;2022-12-18T05:12:20;97820.56;;;10.27;82.48
61035;BME280;46916;40.564;-7.958;2022-12-18T05:14:24;97831.16;;;10.26;82.17
61035;BME280;46916;40.564;-7.958;2022-12-18T05:16:24;97830.41;;;10.24;82.38
61035;BME280;46916;40.564;-7.958;2022-12-18T05:18:25;97828.28;;;10.17;81.69
61035;BME280;46916;40.564;-7.958;2022-12-18T05:20:27;97830.03;;;10.06;82.39
61035;BME280;46916;40.564;-7.958;2022-12-18T05:22:28;97833.09;;;10.00;82.77
61035;BME280;46916;40.564;-7.958;2022-12-18T05:24:29;97831.34;;;10.00;82.45
61035;BME280;46916;40.564;-7.958;2022-12-18T05:26:30;97828.72;;;10.00;82.51
61035;BME280;46916;40.564;-7.958;2022-12-18T05:28:33;97830.47;;;10.00;82.95
61035;BME280;46916;40.564;-7.958;2022-12-18T05:30:34;97821.31;;;9.94;82.78
61035;BME280;46916;40.564;-7.958;2022-12-18T05:32:35;97825.84;;;9.92;82.87
61035;BME280;46916;40.564;-7.958;2022-12-18T05:34:35;97841.66;;;9.90;82.69
61035;BME280;46916;40.564;-7.958;2022-12-18T05:36:36;97841.78;;;9.89;82.55
61035;BME280;46916;40.564;-7.958;2022-12-18T05:38:38;97831.41;;;9.87;82.84
61035;BME280;46916;40.564;-7.958;2022-12-18T05:40:41;97828.69;;;9.89;82.31
61035;BME280;46916;40.564;-7.958;2022-12-18T05:42:42;97838.22;;;9.90;82.62
61035;BME280;46916;40.564;-7.958;2022-12-18T05:44:43;97833.09;;;9.88;82.86
61035;BME280;46916;40.564;-7.958;2022-12-18T05:46:44;97836.56;;;9.89;82.93
61035;BME280;46916;40.564;-7.958;2022-12-18T05:48:45;97839.16;;;9.89;82.85
61035;BME280;46916;40.564;-7.958;2022-12-18T05:50:47;97840.94;;;9.88;82.81
61035;BME280;46916;40.564;-7.958;2022-12-18T05:52:48;97842.00;;;9.86;82.85
61035;BME280;46916;40.564;-7.958;2022-12-18T05:54:49;97842.84;;;9.86;82.86
61035;BME280;46916;40.564;-7.958;2022-12-18T05:56:51;97842.00;;;9.86;83.37
61035;BME280;46916;40.564;-7.958;2022-12-18T05:58:53;97841.88;;;9.87;83.22
61035;BME280;46916;40.564;-7.958;2022-12-18T06:00:54;97840.13;;;9.88;83.17
61035;BME280;46916;40.564;-7.958;2022-12-18T06:02:55;97841.78;;;9.89;83.18
61035;BME280;46916;40.564;-7.958;2022-12-18T06:04:56;97841.03;;;9.87;83.16
61035;BME280;46916;40.564;-7.958;2022-12-18T06:06:56;97847.25;;;9.86;83.34
61035;BME280;46916;40.564;-7.958;2022-12-18T06:08:57;97856.13;;;9.83;83.15
61035;BME280;46916;40.564;-7.958;2022-12-18T06:10:58;97850.19;;;9.81;83.17
61035;BME280;46916;40.564;-7.958;2022-12-18T06:12:59;97857.44;;;9.78;83.55
61035;BME280;46916;40.564;-7.958;2022-12-18T06:15:01;97856.81;;;9.74;83.22
61035;BME280;46916;40.564;-7.958;2022-12-18T06:17:01;97848.38;;;9.71;83.76
61035;BME280;46916;40.564;-7.958;2022-12-18T06:19:04;97854.69;;;9.68;83.86
61035;BME280;46916;40.564;-7.958;2022-12-18T06:21:05;97848.84;;;9.64;83.73
61035;BME280;46916;40.564;-7.958;2022-12-18T06:23:06;97852.63;;;9.60;83.98
61035;BME280;46916;40.564;-7.958;2022-12-18T06:25:07;97862.13;;;9.61;84.02
61035;BME280;46916;40.564;-7.958;2022-12-18T06:27:07;97857.88;;;9.60;83.83
61035;BME280;46916;40.564;-7.958;2022-12-18T06:29:08;97861.44;;;9.59;84.08
61035;BME280;46916;40.564;-7.958;2022-12-18T06:31:09;97865.81;;;9.59;83.93
61035;BME280;46916;40.564;-7.958;2022-12-18T06:33:10;97866.88;;;9.56;84.17
61035;BME280;46916;40.564;-7.958;2022-12-18T06:35:11;97872.13;;;9.56;83.81
61035;BME280;46916;40.564;-7.958;2022-12-18T06:37:11;97870.44;;;9.55;83.66
61035;BME280;46916;40.564;-7.958;2022-12-18T06:39:12;97869.72;;;9.53;84.02
61035;BME280;46916;40.564;-7.958;2022-12-18T06:41:15;97872.31;;;9.53;84.14
61035;BME280;46916;40.564;-7.958;2022-12-18T06:43:16;97875.78;;;9.54;84.20
61035;BME280;46916;40.564;-7.958;2022-12-18T06:45:17;97882.78;;;9.53;84.20
61035;BME280;46916;40.564;-7.958;2022-12-18T06:47:18;97880.28;;;9.52;84.08
61035;BME280;46916;40.564;-7.958;2022-12-18T06:49:19;97877.78;;;9.50;84.33
61035;BME280;46916;40.564;-7.958;2022-12-18T06:51:21;97882.28;;;9.48;83.95
61035;BME280;46916;40.564;-7.958;2022-12-18T06:53:22;97883.25;;;9.47;84.10
61035;BME280;46916;40.564;-7.958;2022-12-18T06:55:23;97885.13;;;9.45;84.16
61035;BME280;46916;40.564;-7.958;2022-12-18T06:57:24;97880.94;;;9.42;84.13
61035;BME280;46916;40.564;-7.958;2022-12-18T06:59:24;97884.41;;;9.43;84.42
61035;BME280;46916;40.564;-7.958;2022-12-18T07:01:25;97887.97;;;9.42;83.84
61035;BME280;46916;40.564;-7.958;2022-12-18T07:03:26;97898.66;;;9.39;84.19
61035;BME280;46916;40.564;-7.958;2022-12-18T07:05:26;97891.88;;;9.36;84.04
61035;BME280;46916;40.564;-7.958;2022-12-18T07:07:27;97900.66;;;9.35;84.37
61035;BME280;46916;40.564;-7.958;2022-12-18T07:09:28;97901.47;;;9.36;84.39
61035;BME280;46916;40.564;-7.958;2022-12-18T07:11:28;97905.06;;;9.35;84.13
61035;BME280;46916;40.564;-7.958;2022-12-18T07:13:29;97906.72;;;9.36;84.34
61035;BME280;46916;40.564;-7.958;2022-12-18T07:15:30;97898.13;;;9.34;84.29
61035;BME280;46916;40.564;-7.958;2022-12-18T07:17:30;97914.56;;;9.36;84.60
61035;BME280;46916;40.564;-7.958;2022-12-18T07:19:31;97913.47;;;9.38;84.57
61035;BME280;46916;40.564;-7.958;2022-12-18T07:21:32;97913.81;;;9.34;84.45
61035;BME280;46916;40.564;-7.958;2022-12-18T07:23:33;97913.94;;;9.32;84.81
61035;BME280;46916;40.564;-7.958;2022-12-18T07:25:35;97922.72;;;9.31;84.62
61035;BME280;46916;40.564;-7.958;2022-12-18T07:27:36;97918.44;;;9.30;84.77
61035;BME280;46916;40.564;-7.958;2022-12-18T07:29:37;97922.13;;;9.28;84.30
61035;BME280;46916;40.564;-7.958;2022-12-18T07:31:37;97918.06;;;9.24;84.03
61035;BME280;46916;40.564;-7.958;2022-12-18T07:33:38;97919.91;;;9.22;84.62
61035;BME280;46916;40.564;-7.958;2022-12-18T07:35:39;97920.16;;;9.18;84.55
61035;BME280;46916;40.564;-7.958;2022-12-18T07:37:39;97919.09;;;9.21;84.63
61035;BME280;46916;40.564;-7.958;2022-12-18T07:39:40;97912.91;;;9.22;84.77
61035;BME280;46916;40.564;-7.958;2022-12-18T07:41:41;97909.03;;;9.28;85.40
61035;BME280;46916;40.564;-7.958;2022-12-18T07:44:02;97918.72;;;9.38;84.99
61035;BME280;46916;40.564;-7.958;2022-12-18T07:46:03;97923.72;;;9.41;85.23
61035;BME280;46916;40.564;-7.958;2022-12-18T07:48:04;97932.19;;;9.45;85.00
61035;BME280;46916;40.564;-7.958;2022-12-18T07:50:05;97937.63;;;9.42;85.04
61035;BME280;46916;40.564;-7.958;2022-12-18T07:52:06;97934.31;;;9.40;84.73
61035;BME280;46916;40.564;-7.958;2022-12-18T07:54:07;97933.47;;;9.39;84.48
61035;BME280;46916;40.564;-7.958;2022-12-18T07:56:09;97925.72;;;9.38;84.92
61035;BME280;46916;40.564;-7.958;2022-12-18T07:58:10;97933.47;;;9.39;84.46
61035;BME280;46916;40.564;-7.958;2022-12-18T08:00:12;97940.16;;;9.43;84.47
61035;BME280;46916;40.564;-7.958;2022-12-18T08:02:12;97946.84;;;9.48;84.72
61035;BME280;46916;40.564;-7.958;2022-12-18T08:04:13;97936.13;;;9.51;84.57
61035;BME280;46916;40.564;-7.958;2022-12-18T08:06:14;97929.16;;;9.51;84.59
61035;BME280;46916;40.564;-7.958;2022-12-18T08:08:14;97924.63;;;9.53;84.81
61035;BME280;46916;40.564;-7.958;2022-12-18T08:10:15;97932.25;;;9.56;84.78
61035;BME280;46916;40.564;-7.958;2022-12-18T08:12:16;97921.66;;;9.58;84.74
61035;BME280;46916;40.564;-7.958;2022-12-18T08:14:17;97923.13;;;9.62;84.83
61035;BME280;46916;40.564;-7.958;2022-12-18T08:16:18;97928.13;;;9.65;84.79
61035;BME280;46916;40.564;-7.958;2022-12-18T08:18:19;97923.59;;;9.67;84.68
61035;BME280;46916;40.564;-7.958;2022-12-18T08:20:20;97933.97;;;9.68;84.84
61035;BME280;46916;40.564;-7.958;2022-12-18T08:22:20;97929.44;;;9.71;84.96
61035;BME280;46916;40.564;-7.958;2022-12-18T08:24:21;97925.91;;;9.72;84.90
61035;BME280;46916;40.564;-7.958;2022-12-18T08:26:23;97933.50;;;9.75;84.71
61035;BME280;46916;40.564;-7.958;2022-12-18T08:28:24;97933.31;;;9.78;84.98
61035;BME280;46916;40.564;-7.958;2022-12-18T08:30:24;97933.09;;;9.81;84.67
61035;BME280;46916;40.564;-7.958;2022-12-18T08:32:27;97933.56;;;9.86;84.89
61035;BME280;46916;40.564;-7.958;2022-12-18T08:34:27;97929.06;;;9.88;84.54
61035;BME280;46916;40.564;-7.958;2022-12-18T08:36:28;97924.31;;;9.93;84.67
61035;BME280;46916;40.564;-7.958;2022-12-18T08:38:29;97927.78;;;9.93;84.87
61035;BME280;46916;40.564;-7.958;2022-12-18T08:40:30;97935.28;;;9.98;84.87
61035;BME280;46916;40.564;-7.958;2022-12-18T08:42:33;97933.88;;;10.05;84.56
61035;BME280;46916;40.564;-7.958;2022-12-18T08:44:52;97937.59;;;10.14;84.54
61035;BME280;46916;40.564;-7.958;2022-12-18T08:46:53;97947.72;;;10.18;84.30
61035;BME280;46916;40.564;-7.958;2022-12-18T08:48:54;97947.38;;;10.23;84.36
61035;BME280;46916;40.564;-7.958;2022-12-18T08:50:57;97948.41;;;10.33;84.50
61035;BME280;46916;40.564;-7.958;2022-12-18T08:52:58;97944.03;;;10.45;84.47
61035;BME280;46916;40.564;-7.958;2022-12-18T08:54:59;97944.97;;;10.55;83.72
61035;BME280;46916;40.564;-7.958;2022-12-18T08:57:00;97956.44;;;10.65;82.97
61035;BME280;46916;40.564;-7.958;2022-12-18T08:59:01;97952.38;;;10.73;82.72
61035;BME280;46916;40.564;-7.958;2022-12-18T09:01:04;97964.63;;;10.72;81.78
61035;BME280;46916;40.564;-7.958;2022-12-18T09:03:13;97963.56;;;10.63;81.45
61035;BME280;46916;40.564;-7.958;2022-12-18T09:05:14;97972.81;;;10.56;82.15
61035;BME280;46916;40.564;-7.958;2022-12-18T09:07:15;97975.19;;;10.48;82.29
61035;BME280;46916;40.564;-7.958;2022-12-18T09:09:15;97978.28;;;10.42;82.75
61035;BME280;46916;40.564;-7.958;2022-12-18T09:11:25;97977.06;;;10.35;82.67
61035;BME280;46916;40.564;-7.958;2022-12-18T09:13:26;97983.47;;;10.31;82.78
61035;BME280;46916;40.564;-7.958;2022-12-18T09:15:27;97977.63;;;10.27;83.00
61035;BME280;46916;40.564;-7.958;2022-12-18T09:17:27;97969.09;;;10.25;83.34
61035;BME280;46916;40.564;-7.958;2022-12-18T09:19:28;97976.50;;;10.18;83.75
61035;BME280;46916;40.564;-7.958;2022-12-18T09:21:32;97976.63;;;10.17;83.71
61035;BME280;46916;40.564;-7.958;2022-12-18T09:23:33;97973.34;;;10.26;83.45
61035;BME280;46916;40.564;-7.958;2022-12-18T09:25:34;97968.03;;;10.39;83.49
61035;BME280;46916;40.564;-7.958;2022-12-18T09:27:36;97969.16;;;10.59;83.83
61035;BME280;46916;40.564;-7.958;2022-12-18T09:29:36;97979.41;;;10.84;83.41
61035;BME280;46916;40.564;-7.958;2022-12-18T09:31:38;97988.72;;;11.11;83.03
61035;BME280;46916;40.564;-7.958;2022-12-18T09:33:39;97988.00;;;11.31;82.99
61035;BME280;46916;40.564;-7.958;2022-12-18T09:35:41;97989.06;;;11.51;82.57
61035;BME280;46916;40.564;-7.958;2022-12-18T09:37:42;97989.28;;;11.59;82.60
61035;BME280;46916;40.564;-7.958;2022-12-18T09:39:43;97992.38;;;11.64;82.34
61035;BME280;46916;40.564;-7.958;2022-12-18T09:41:51;97983.28;;;11.69;81.93
61035;BME280;46916;40.564;-7.958;2022-12-18T09:44:01;97992.38;;;11.64;82.18
61035;BME280;46916;40.564;-7.958;2022-12-18T09:46:07;97992.38;;;11.64;82.26
61035;BME280;46916;40.564;-7.958;2022-12-18T09:50:32;97991.97;;;11.80;82.34
61035;BME280;46916;40.564;-7.958;2022-12-18T09:52:39;97994.84;;;11.88;83.05
61035;BME280;46916;40.564;-7.958;2022-12-18T09:54:42;97985.75;;;11.93;83.13
61035;BME280;46916;40.564;-7.958;2022-12-18T09:56:44;97983.81;;;11.95;83.25
61035;BME280;46916;40.564;-7.958;2022-12-18T09:58:50;97984.06;;;11.92;83.39
61035;BME280;46916;40.564;-7.958;2022-12-18T10:00:54;97991.38;;;11.88;83.61
61035;BME280;46916;40.564;-7.958;2022-12-18T10:03:05;97995.53;;;11.90;83.46
61035;BME280;46916;40.564;-7.958;2022-12-18T10:05:14;97999.09;;;12.01;83.57
61035;BME280;46916;40.564;-7.958;2022-12-18T10:07:30;98006.91;;;12.12;83.50
61035;BME280;46916;40.564;-7.958;2022-12-18T10:09:37;98011.16;;;12.24;83.30
61035;BME280;46916;40.564;-7.958;2022-12-18T10:13:52;98018.13;;;12.46;82.34
61035;BME280;46916;40.564;-7.958;2022-12-18T10:22:42;98035.13;;;12.94;80.11
61035;BME280;46916;40.564;-7.958;2022-12-18T10:27:25;98029.94;;;13.03;79.00
61035;BME280;46916;40.564;-7.958;2022-12-18T10:29:26;98035.66;;;13.08;79.10
61035;BME280;46916;40.564;-7.958;2022-12-18T10:31:27;98034.41;;;13.12;78.97
61035;BME280;46916;40.564;-7.958;2022-12-18T10:33:29;98027.50;;;13.11;78.90
61035;BME280;46916;40.564;-7.958;2022-12-18T10:35:32;98034.41;;;13.12;78.89
61035;BME280;46916;40.564;-7.958;2022-12-18T10:37:32;98042.50;;;13.21;79.25
61035;BME280;46916;40.564;-7.958;2022-12-18T10:39:33;98047.13;;;13.28;79.19
61035;BME280;46916;40.564;-7.958;2022-12-18T10:41:33;98046.22;;;13.39;79.12
61035;BME280;46916;40.564;-7.958;2022-12-18T10:43:35;98040.41;;;13.45;79.14
61035;BME280;46916;40.564;-7.958;2022-12-18T10:45:36;98037.94;;;13.53;79.35
61035;BME280;46916;40.564;-7.958;2022-12-18T10:47:42;98027.59;;;13.61;77.92
61035;BME280;46916;40.564;-7.958;2022-12-18T10:49:51;98034.25;;;13.66;77.71
61035;BME280;46916;40.564;-7.958;2022-12-18T10:52:22;98040.75;;;13.61;78.14
61035;BME280;46916;40.564;-7.958;2022-12-18T10:54:23;98039.09;;;13.60;78.71
61035;BME280;46916;40.564;-7.958;2022-12-18T10:56:29;98042.69;;;13.59;78.92
61035;BME280;46916;40.564;-7.958;2022-12-18T10:58:35;98047.09;;;13.59;79.50
61035;BME280;46916;40.564;-7.958;2022-12-18T11:00:36;98039.09;;;13.60;79.46
61035;BME280;46916;40.564;-7.958;2022-12-18T11:02:37;98038.94;;;13.62;79.40
61035;BME280;46916;40.564;-7.958;2022-12-18T11:04:50;98030.63;;;13.67;79.34
61035;BME280;46916;40.564;-7.958;2022-12-18T11:07:02;98034.56;;;13.72;79.21
61035;BME280;46916;40.564;-7.958;2022-12-18T11:09:19;98024.44;;;13.77;78.27
61035;BME280;46916;40.564;-7.958;2022-12-18T11:11:22;98019.75;;;13.81;77.80
61035;BME280;46916;40.564;-7.958;2022-12-18T11:13:25;98024.75;;;13.84;77.49
61035;BME280;46916;40.564;-7.958;2022-12-18T11:15:29;98018.50;;;13.85;77.25
61035;BME280;46916;40.564;-7.958;2022-12-18T11:17:33;98020.16;;;13.86;77.45
61035;BME280;46916;40.564;-7.958;2022-12-18T11:19:36;98016.28;;;13.90;77.44
61035;BME280;46916;40.564;-7.958;2022-12-18T11:21:43;98008.38;;;13.90;77.61
61035;BME280;46916;40.564;-7.958;2022-12-18T11:23:49;98010.03;;;13.91;77.51